ブリスベン の空港の天気 - METARとTAF

ブリスベン空港 ( YBBN / BNE ) - オーストラリア クイーンズランド州ブリスベン
飛行場実況気象(Metar)
観測時間05/31 12:00 AEST (05/31 02:00 UTC)
風向・風速南南西 2m/s
視程10km以上
天気現象周辺でしゅう雨
少しの雲 雲底高度 610m
全天の4割程度の雲 雲底高度 790m
全天の8割程度の雲 雲底高度 2130m
気温21℃
湿度64%
気圧1021hPa
METARYBBN 310200Z 21004KT 9999 VCSH FEW020 SCT026 BKN070 21/14 Q1021 FM0230 07010KT 9999 SCT035
過去の天気等 Google飛行場航空写真 Wunderground天気予報

過去48時間のMETAR

飛行場予報(TAF)
発表時間: 5/31 09:13 AEST (5/30 23:13 UTC)
予報対象時間: 31日10時 AEST ~ 1日16時 AEST
風向・風速南西 3m/s
視程10km以上
全天の4割程度の雲 雲底高度 910m
31日13時 AEST から
風向・風速東北東 5m/s
視程10km以上
全天の4割程度の雲 雲底高度 1070m
31日22時 AEST から
風向・風速南南西 3m/s
視程10km以上
少しの雲 雲底高度 760m
1日10時 AEST から
風向・風速北北東 5m/s
視程10km以上
少しの雲 雲底高度 1220m
TAF YBBN 302313Z 3100/0106 22005KT 9999 SCT030
FM310300 07010KT 9999 SCT035
FM311200 20005KT 9999 FEW025
FM010000 02010KT 9999 FEW040